createdAt,value
2018-01-07T00:00:25.029Z,7.54
2018-01-07T00:01:25.020Z,7.46
2018-01-07T00:02:25.013Z,7.57
2018-01-07T00:03:25.053Z,7.57
2018-01-07T00:04:24.991Z,7.42
2018-01-07T00:05:24.988Z,7.39
2018-01-07T00:06:24.975Z,7.39
2018-01-07T00:07:24.969Z,7.37
2018-01-07T00:08:24.960Z,7.42
2018-01-07T00:09:24.951Z,7.49
2018-01-07T00:10:24.946Z,7.57
2018-01-07T00:11:24.938Z,7.55
2018-01-07T00:12:24.934Z,7.55
2018-01-07T00:13:24.920Z,7.54
2018-01-07T00:14:24.914Z,7.57
2018-01-07T00:15:24.905Z,7.54
2018-01-07T00:16:24.897Z,7.52
2018-01-07T00:17:24.900Z,7.60
2018-01-07T00:18:24.889Z,7.57
2018-01-07T00:19:24.872Z,7.60
2018-01-07T00:20:24.861Z,7.60
2018-01-07T00:21:24.854Z,7.55
2018-01-07T00:22:24.846Z,7.54
2018-01-07T00:23:24.838Z,7.57
2018-01-07T00:24:24.828Z,7.52
2018-01-07T00:25:24.820Z,7.54
2018-01-07T00:26:24.807Z,7.60
2018-01-07T00:27:24.807Z,7.57
2018-01-07T00:28:24.801Z,7.58
2018-01-07T00:29:24.799Z,7.62
2018-01-07T00:30:24.790Z,7.55
2018-01-07T00:31:24.776Z,7.57
2018-01-07T00:32:24.768Z,7.58
2018-01-07T00:33:24.760Z,7.61
2018-01-07T00:34:24.750Z,7.54
2018-01-07T00:35:24.737Z,7.55
2018-01-07T00:36:24.729Z,7.55
2018-01-07T00:37:24.727Z,7.47
2018-01-07T00:38:24.715Z,7.47
2018-01-07T00:39:24.710Z,7.44
2018-01-07T00:40:24.697Z,7.49
2018-01-07T00:41:24.690Z,7.44
2018-01-07T00:42:24.682Z,7.46
2018-01-07T00:43:24.677Z,7.44
2018-01-07T00:44:24.673Z,7.46
2018-01-07T00:45:24.662Z,7.46
2018-01-07T00:46:24.664Z,7.52
2018-01-07T00:47:24.641Z,7.47
2018-01-07T00:48:24.635Z,7.50
2018-01-07T00:49:24.627Z,7.50
2018-01-07T00:50:24.623Z,7.52
2018-01-07T00:51:24.614Z,7.50
2018-01-07T00:52:24.602Z,7.52
2018-01-07T00:53:24.595Z,7.55
2018-01-07T00:54:24.583Z,7.57
2018-01-07T00:55:24.584Z,7.60
2018-01-07T00:56:24.572Z,7.55
2018-01-07T00:57:24.567Z,7.60
2018-01-07T00:58:24.557Z,7.60
2018-01-07T00:59:24.542Z,7.60
2018-01-07T01:00:24.532Z,7.57
2018-01-07T01:01:24.524Z,7.55
2018-01-07T01:02:24.521Z,7.57
2018-01-07T01:03:24.513Z,7.55
2018-01-07T01:04:24.503Z,7.62
2018-01-07T01:05:24.496Z,7.61
2018-01-07T01:06:24.497Z,7.54
2018-01-07T01:07:24.480Z,7.57
2018-01-07T01:08:24.473Z,7.57
2018-01-07T01:09:24.467Z,7.49
2018-01-07T01:10:24.458Z,7.50
2018-01-07T01:11:24.451Z,7.46
2018-01-07T01:12:24.442Z,7.49
2018-01-07T01:13:24.434Z,7.47
2018-01-07T01:14:24.424Z,7.50
2018-01-07T01:15:24.408Z,7.54
2018-01-07T01:16:24.405Z,7.49
2018-01-07T01:17:24.395Z,7.55
2018-01-07T01:18:24.389Z,7.57
2018-01-07T01:19:24.379Z,7.57
2018-01-07T01:20:24.374Z,7.58
2018-01-07T01:21:24.363Z,7.57
2018-01-07T01:22:24.356Z,7.58
2018-01-07T01:23:24.350Z,7.46
2018-01-07T01:24:24.348Z,7.49
2018-01-07T01:25:24.335Z,7.49
2018-01-07T01:26:24.326Z,7.49
2018-01-07T01:27:24.316Z,7.49
2018-01-07T01:28:24.309Z,7.44
2018-01-07T01:29:24.300Z,7.43
2018-01-07T01:30:24.293Z,7.47
2018-01-07T01:31:24.281Z,7.46
2018-01-07T01:32:24.273Z,7.46
2018-01-07T01:33:24.265Z,7.49
2018-01-07T01:34:24.257Z,7.44
2018-01-07T01:35:24.248Z,7.42
2018-01-07T01:36:24.239Z,7.44
2018-01-07T01:37:24.232Z,7.46
2018-01-07T01:38:24.225Z,7.49
2018-01-07T01:39:24.222Z,7.44
2018-01-07T01:40:24.208Z,7.46
2018-01-07T01:41:24.204Z,7.34
2018-01-07T01:42:24.237Z,7.46
2018-01-07T01:43:24.183Z,7.47
2018-01-07T01:44:24.195Z,7.47
2018-01-07T01:45:24.184Z,7.58
2018-01-07T01:46:24.163Z,7.52
2018-01-07T01:47:24.152Z,7.47
2018-01-07T01:48:24.141Z,7.46
2018-01-07T01:49:24.133Z,7.46
2018-01-07T01:50:24.125Z,7.49
2018-01-07T01:51:24.122Z,7.52
2018-01-07T01:52:24.110Z,7.49
2018-01-07T01:53:24.100Z,7.57
2018-01-07T01:54:24.092Z,7.46
2018-01-07T01:55:24.093Z,7.46
2018-01-07T01:56:24.079Z,7.47
2018-01-07T01:57:24.070Z,7.58
2018-01-07T01:58:24.061Z,7.54
2018-01-07T01:59:24.051Z,7.52
2018-01-07T02:00:24.042Z,7.55
2018-01-07T02:01:24.036Z,7.50
2018-01-07T02:02:24.034Z,7.47
2018-01-07T02:03:24.022Z,7.47
2018-01-07T02:04:24.017Z,7.43
2018-01-07T02:05:24.002Z,7.44
2018-01-07T02:06:23.999Z,7.44
2018-01-07T02:07:23.991Z,7.39
2018-01-07T02:08:23.984Z,7.39
2018-01-07T02:09:23.974Z,7.37
2018-01-07T02:10:23.968Z,7.46
2018-01-07T02:11:23.955Z,7.40
2018-01-07T02:12:23.946Z,7.44
2018-01-07T02:13:23.941Z,7.43
2018-01-07T02:14:23.932Z,7.37
2018-01-07T02:15:23.922Z,7.31
2018-01-07T02:16:23.913Z,7.29
2018-01-07T02:17:23.905Z,7.36
2018-01-07T02:18:23.898Z,7.29
2018-01-07T02:19:23.890Z,7.33
2018-01-07T02:20:23.885Z,7.21
2018-01-07T02:21:23.875Z,7.29
2018-01-07T02:22:23.867Z,7.26
2018-01-07T02:23:23.858Z,7.29
2018-01-07T02:24:23.852Z,7.19
2018-01-07T02:25:24.454Z,7.24
2018-01-07T02:26:23.831Z,7.36
2018-01-07T02:27:23.822Z,7.26
2018-01-07T02:28:23.814Z,7.31
2018-01-07T02:29:23.805Z,7.39
2018-01-07T02:30:23.797Z,7.40
2018-01-07T02:31:23.791Z,7.42
2018-01-07T02:32:23.784Z,7.42
2018-01-07T02:33:23.775Z,7.39
2018-01-07T02:34:23.780Z,7.37
2018-01-07T02:35:23.759Z,7.33
2018-01-07T02:36:23.753Z,7.43
2018-01-07T02:37:23.743Z,7.40
2018-01-07T02:38:23.737Z,7.37
2018-01-07T02:39:23.724Z,7.43
2018-01-07T02:40:23.714Z,7.44
2018-01-07T02:41:23.718Z,7.40
2018-01-07T02:42:23.705Z,7.40
2018-01-07T02:43:23.697Z,7.42
2018-01-07T02:44:23.684Z,7.29
2018-01-07T02:45:23.676Z,7.36
2018-01-07T02:46:23.667Z,7.37
2018-01-07T02:47:23.659Z,7.34
2018-01-07T02:48:23.650Z,7.39
2018-01-07T02:49:23.683Z,7.28
2018-01-07T02:50:23.636Z,7.22
2018-01-07T02:51:23.627Z,7.19
2018-01-07T02:52:23.621Z,7.21
2018-01-07T02:53:23.617Z,7.22
2018-01-07T02:54:23.610Z,7.22
2018-01-07T02:55:23.593Z,7.21
2018-01-07T02:56:23.589Z,7.21
2018-01-07T02:57:23.582Z,7.24
2018-01-07T02:58:23.571Z,7.31
2018-01-07T02:59:23.560Z,7.28
2018-01-07T03:00:23.552Z,7.31
2018-01-07T03:01:23.542Z,7.29
2018-01-07T03:02:23.535Z,7.24
2018-01-07T03:03:23.530Z,7.22
2018-01-07T03:04:23.522Z,7.21
2018-01-07T03:05:23.515Z,7.08
2018-01-07T03:06:23.510Z,7.08
2018-01-07T03:07:23.498Z,7.24
2018-01-07T03:08:23.486Z,7.25
2018-01-07T03:09:23.477Z,7.22
2018-01-07T03:10:23.471Z,7.25
2018-01-07T03:11:23.459Z,7.18
2018-01-07T03:12:23.451Z,7.11
2018-01-07T03:13:23.446Z,7.11
2018-01-07T03:14:23.434Z,7.19
2018-01-07T03:15:23.432Z,7.22
2018-01-07T03:16:23.422Z,7.26
2018-01-07T03:17:23.414Z,7.21
2018-01-07T03:18:23.407Z,7.26
2018-01-07T03:19:23.396Z,7.26
2018-01-07T03:20:23.392Z,7.16
2018-01-07T03:21:23.382Z,7.08
2018-01-07T03:22:23.373Z,7.08
2018-01-07T03:23:23.360Z,7.10
2018-01-07T03:24:23.352Z,7.07
2018-01-07T03:25:23.343Z,7.10
2018-01-07T03:26:23.335Z,7.26
2018-01-07T03:27:23.329Z,7.21
2018-01-07T03:28:23.320Z,7.16
2018-01-07T03:29:23.315Z,7.19
2018-01-07T03:30:23.302Z,7.08
2018-01-07T03:31:23.298Z,7.07
2018-01-07T03:32:23.289Z,7.06
2018-01-07T03:33:23.284Z,7.06
2018-01-07T03:34:23.277Z,7.04
2018-01-07T03:35:23.266Z,7.00
2018-01-07T03:36:23.255Z,6.97
2018-01-07T03:37:23.245Z,7.03
2018-01-07T03:38:23.240Z,7.07
2018-01-07T03:39:23.227Z,7.11
2018-01-07T03:40:23.218Z,7.08
2018-01-07T03:41:23.211Z,7.13
2018-01-07T03:42:23.203Z,7.06
2018-01-07T03:43:23.195Z,7.10
2018-01-07T03:44:23.182Z,7.06
2018-01-07T03:45:23.177Z,7.06
2018-01-07T03:46:23.172Z,7.04
2018-01-07T03:47:23.168Z,7.06
2018-01-07T03:48:23.159Z,7.01
2018-01-07T03:49:23.149Z,7.10
2018-01-07T03:50:23.138Z,7.08
2018-01-07T03:51:23.126Z,7.07
2018-01-07T03:52:23.123Z,7.04
2018-01-07T03:53:23.113Z,7.07
2018-01-07T03:54:23.105Z,7.01
2018-01-07T03:55:23.093Z,6.99
2018-01-07T03:56:23.085Z,7.10
2018-01-07T03:57:23.074Z,7.11
2018-01-07T03:58:23.065Z,7.10
2018-01-07T03:59:23.061Z,7.08
2018-01-07T04:00:23.050Z,7.07
2018-01-07T04:01:23.042Z,7.13
2018-01-07T04:02:23.034Z,7.10
2018-01-07T04:03:23.030Z,7.13
2018-01-07T04:04:23.020Z,7.00
2018-01-07T04:05:23.015Z,6.93
2018-01-07T04:06:23.004Z,6.91
2018-01-07T04:07:22.995Z,6.97
2018-01-07T04:08:22.988Z,6.96
2018-01-07T04:09:22.978Z,6.92
2018-01-07T04:10:22.970Z,6.88
2018-01-07T04:11:22.956Z,6.82
2018-01-07T04:12:22.949Z,6.88
2018-01-07T04:13:22.946Z,6.96
2018-01-07T04:14:22.935Z,6.97
2018-01-07T04:15:22.924Z,6.88
2018-01-07T04:16:22.918Z,6.88
2018-01-07T04:17:22.910Z,6.89
2018-01-07T04:18:22.900Z,6.85
2018-01-07T04:19:22.889Z,6.85
2018-01-07T04:20:22.888Z,6.85
2018-01-07T04:21:22.875Z,6.89
2018-01-07T04:22:22.868Z,6.79
2018-01-07T04:23:22.872Z,6.83
2018-01-07T04:24:22.846Z,6.83
2018-01-07T04:25:22.834Z,6.82
2018-01-07T04:26:22.841Z,6.81
2018-01-07T04:27:22.822Z,6.82
2018-01-07T04:28:22.813Z,6.70
2018-01-07T04:29:22.806Z,6.78
2018-01-07T04:30:22.796Z,6.68
2018-01-07T04:31:22.780Z,6.71
2018-01-07T04:32:22.771Z,6.78
2018-01-07T04:33:22.774Z,6.79
2018-01-07T04:34:22.761Z,6.81
2018-01-07T04:35:22.755Z,6.70
2018-01-07T04:36:22.750Z,6.70
2018-01-07T04:37:22.743Z,6.73
2018-01-07T04:38:22.730Z,6.73
2018-01-07T04:39:22.724Z,6.70
2018-01-07T04:40:22.714Z,6.78
2018-01-07T04:41:22.704Z,6.70
2018-01-07T04:42:22.692Z,6.78
2018-01-07T04:43:22.682Z,6.67
2018-01-07T04:44:22.673Z,6.73
2018-01-07T04:45:22.665Z,6.68
2018-01-07T04:46:22.658Z,6.67
2018-01-07T04:47:22.648Z,6.75
2018-01-07T04:48:22.640Z,6.73
2018-01-07T04:49:22.633Z,6.70
2018-01-07T04:50:22.627Z,6.78
2018-01-07T04:51:22.616Z,6.78
2018-01-07T04:52:22.607Z,6.85
2018-01-07T04:53:22.602Z,6.83
2018-01-07T04:54:22.594Z,6.88
2018-01-07T04:55:22.573Z,6.89
2018-01-07T04:56:22.604Z,6.93
2018-01-07T04:57:22.567Z,6.89
2018-01-07T04:58:22.562Z,6.96
2018-01-07T04:59:22.546Z,7.01
2018-01-07T05:00:22.538Z,6.93
2018-01-07T05:01:22.544Z,7.00
2018-01-07T05:02:22.524Z,7.01
2018-01-07T05:03:22.512Z,6.89
2018-01-07T05:04:22.503Z,6.99
2018-01-07T05:05:22.493Z,6.88
2018-01-07T05:06:22.486Z,6.81
2018-01-07T05:07:22.480Z,6.82
2018-01-07T05:08:22.476Z,6.81
2018-01-07T05:09:22.465Z,6.81
2018-01-07T05:10:22.457Z,6.88
2018-01-07T05:11:22.447Z,6.74
2018-01-07T05:12:22.436Z,6.79
2018-01-07T05:13:22.429Z,6.71
2018-01-07T05:14:22.420Z,6.71
2018-01-07T05:15:22.415Z,6.67
2018-01-07T05:16:22.403Z,6.74
2018-01-07T05:17:22.398Z,6.75
2018-01-07T05:18:22.388Z,6.64
2018-01-07T05:19:22.378Z,6.68
2018-01-07T05:20:22.367Z,6.71
2018-01-07T05:21:22.356Z,6.73
2018-01-07T05:22:22.364Z,6.70
2018-01-07T05:23:22.341Z,6.70
2018-01-07T05:24:22.332Z,6.81
2018-01-07T05:25:22.329Z,6.83
2018-01-07T05:26:22.316Z,6.81
2018-01-07T05:27:22.305Z,6.79
2018-01-07T05:28:22.296Z,6.70
2018-01-07T05:29:22.290Z,6.81
2018-01-07T05:30:22.280Z,6.82
2018-01-07T05:31:22.277Z,6.83
2018-01-07T05:32:22.267Z,6.82
2018-01-07T05:33:22.258Z,6.79
2018-01-07T05:34:22.252Z,6.92
2018-01-07T05:35:22.238Z,6.82
2018-01-07T05:36:22.233Z,6.82
2018-01-07T05:37:22.224Z,6.79
2018-01-07T05:38:22.215Z,6.74
2018-01-07T05:39:22.203Z,6.79
2018-01-07T05:40:22.194Z,6.92
2018-01-07T05:41:22.190Z,6.89
2018-01-07T05:42:22.178Z,6.89
2018-01-07T05:43:22.169Z,6.92
2018-01-07T05:44:22.163Z,6.91
2018-01-07T05:45:22.155Z,6.97
2018-01-07T05:46:22.146Z,6.91
2018-01-07T05:47:22.144Z,6.85
2018-01-07T05:48:22.129Z,6.81
2018-01-07T05:49:22.120Z,6.79
2018-01-07T05:50:22.114Z,6.73
2018-01-07T05:51:22.106Z,6.68
2018-01-07T05:52:22.096Z,6.68
2018-01-07T05:53:22.088Z,6.79
2018-01-07T05:54:22.081Z,6.71
2018-01-07T05:55:22.067Z,6.74
2018-01-07T05:56:22.060Z,6.75
2018-01-07T05:57:22.051Z,6.83
2018-01-07T05:58:22.045Z,6.83
2018-01-07T05:59:22.035Z,6.79
2018-01-07T06:00:22.031Z,6.79
2018-01-07T06:01:22.020Z,6.86
2018-01-07T06:02:22.007Z,6.83
2018-01-07T06:03:22.001Z,6.85
2018-01-07T06:04:22.527Z,6.85
2018-01-07T06:05:21.985Z,6.88
2018-01-07T06:06:21.976Z,6.83
2018-01-07T06:07:21.972Z,6.89
2018-01-07T06:08:21.961Z,6.88
2018-01-07T06:09:21.952Z,6.91
2018-01-07T06:10:21.942Z,6.86
2018-01-07T06:11:21.932Z,6.86
2018-01-07T06:12:21.921Z,6.92
2018-01-07T06:13:21.914Z,6.93
2018-01-07T06:14:21.906Z,6.93
2018-01-07T06:15:21.910Z,6.86
2018-01-07T06:16:21.892Z,6.91
2018-01-07T06:17:21.883Z,6.89
2018-01-07T06:18:21.876Z,6.86
2018-01-07T06:19:21.864Z,6.88
2018-01-07T06:20:21.855Z,6.88
2018-01-07T06:21:21.847Z,6.83
2018-01-07T06:22:21.838Z,6.83
2018-01-07T06:23:21.829Z,6.88
2018-01-07T06:24:21.822Z,6.85
2018-01-07T06:25:21.812Z,6.99
2018-01-07T06:26:21.806Z,6.92
2018-01-07T06:27:21.798Z,6.85
2018-01-07T06:28:21.791Z,6.89
2018-01-07T06:29:21.785Z,6.92
2018-01-07T06:30:21.777Z,6.93
2018-01-07T06:31:21.766Z,6.81
2018-01-07T06:32:21.758Z,6.83
2018-01-07T06:33:21.750Z,6.82
2018-01-07T06:34:21.739Z,6.82
2018-01-07T06:35:21.727Z,6.75
2018-01-07T06:36:21.721Z,6.82
2018-01-07T06:37:21.714Z,6.85
2018-01-07T06:38:21.704Z,6.82
2018-01-07T06:39:21.696Z,6.73
2018-01-07T06:40:21.687Z,6.70
2018-01-07T06:41:21.679Z,6.68
2018-01-07T06:42:21.670Z,6.82
2018-01-07T06:43:21.661Z,6.82
2018-01-07T06:44:21.651Z,6.74
2018-01-07T06:45:21.647Z,6.79
2018-01-07T06:46:21.645Z,6.79
2018-01-07T06:47:21.623Z,6.79
2018-01-07T06:48:21.622Z,6.83
2018-01-07T06:49:21.613Z,6.86
2018-01-07T06:50:21.613Z,6.81
2018-01-07T06:51:21.592Z,6.79
2018-01-07T06:52:21.584Z,6.88
2018-01-07T06:53:21.576Z,6.89
2018-01-07T06:54:21.572Z,6.92
2018-01-07T06:55:21.558Z,6.96
2018-01-07T06:56:21.551Z,6.92
2018-01-07T06:57:21.544Z,6.91
2018-01-07T06:58:21.533Z,6.89
2018-01-07T06:59:21.542Z,6.81
2018-01-07T07:00:21.519Z,6.81
2018-01-07T07:01:21.513Z,6.82
2018-01-07T07:02:21.503Z,6.71
2018-01-07T07:03:21.497Z,6.75
2018-01-07T07:04:21.483Z,6.70
2018-01-07T07:05:21.480Z,6.79
2018-01-07T07:06:21.472Z,6.79
2018-01-07T07:07:21.460Z,6.81
2018-01-07T07:08:21.450Z,6.79
2018-01-07T07:09:21.441Z,6.78
2018-01-07T07:10:21.434Z,6.83
2018-01-07T07:11:21.424Z,6.78
2018-01-07T07:12:21.413Z,6.83
2018-01-07T07:13:21.407Z,6.83
2018-01-07T07:14:21.398Z,6.93
2018-01-07T07:15:21.384Z,6.85
2018-01-07T07:16:21.383Z,6.82
2018-01-07T07:17:21.376Z,6.79
2018-01-07T07:18:21.375Z,6.78
2018-01-07T07:19:21.352Z,6.82
2018-01-07T07:20:21.349Z,6.83
2018-01-07T07:21:21.337Z,6.79
2018-01-07T07:22:21.330Z,6.75
2018-01-07T07:23:21.326Z,6.86
2018-01-07T07:24:21.317Z,6.85
2018-01-07T07:25:21.310Z,6.83
2018-01-07T07:26:21.301Z,6.81
2018-01-07T07:27:21.292Z,6.82
2018-01-07T07:28:21.281Z,6.78
2018-01-07T07:29:21.288Z,6.81
2018-01-07T07:30:21.266Z,6.71
2018-01-07T07:31:21.254Z,6.70
2018-01-07T07:32:21.242Z,6.73
2018-01-07T07:33:21.235Z,6.81
2018-01-07T07:34:22.053Z,6.81
2018-01-07T07:35:21.218Z,6.65
2018-01-07T07:36:21.214Z,6.82
2018-01-07T07:37:21.202Z,6.81
2018-01-07T07:38:21.202Z,6.83
2018-01-07T07:39:21.189Z,6.85
2018-01-07T07:40:21.181Z,6.71
2018-01-07T07:41:21.173Z,6.73
2018-01-07T07:42:21.162Z,6.78
2018-01-07T07:43:21.152Z,6.75
2018-01-07T07:44:21.145Z,6.74
2018-01-07T07:45:21.130Z,6.81
2018-01-07T07:46:21.128Z,6.82
2018-01-07T07:47:21.116Z,6.79
2018-01-07T07:48:21.111Z,6.73
2018-01-07T07:49:21.097Z,6.71
2018-01-07T07:50:21.093Z,6.75
2018-01-07T07:51:21.599Z,6.78
2018-01-07T07:52:21.072Z,6.75
2018-01-07T07:53:21.063Z,6.75
2018-01-07T07:54:21.055Z,6.75
2018-01-07T07:55:21.049Z,6.70
2018-01-07T07:56:21.044Z,6.73
2018-01-07T07:57:21.026Z,6.68
2018-01-07T07:58:21.030Z,6.83
2018-01-07T07:59:21.016Z,6.78
2018-01-07T08:00:21.006Z,6.82
2018-01-07T08:01:20.997Z,6.81
2018-01-07T08:02:20.990Z,6.82
2018-01-07T08:03:20.976Z,6.85
2018-01-07T08:04:20.970Z,6.82
2018-01-07T08:05:20.959Z,6.81
2018-01-07T08:06:20.952Z,6.82
2018-01-07T08:07:20.939Z,6.81
2018-01-07T08:08:20.933Z,6.85
2018-01-07T08:09:20.926Z,6.82
2018-01-07T08:10:20.921Z,6.78
2018-01-07T08:11:20.916Z,6.89
2018-01-07T08:12:20.916Z,6.93
2018-01-07T08:13:20.895Z,6.96
2018-01-07T08:14:20.884Z,6.92
2018-01-07T08:15:20.875Z,6.91
2018-01-07T08:16:20.872Z,6.89
2018-01-07T08:17:20.861Z,6.99
2018-01-07T08:18:20.852Z,7.01
2018-01-07T08:19:20.837Z,6.96
2018-01-07T08:20:20.829Z,6.89
2018-01-07T08:21:20.823Z,6.92
2018-01-07T08:22:20.814Z,6.96
2018-01-07T08:23:20.805Z,6.89
2018-01-07T08:24:21.575Z,6.89
2018-01-07T08:25:20.791Z,6.93
2018-01-07T08:26:20.781Z,6.91
2018-01-07T08:27:20.777Z,6.93
2018-01-07T08:28:20.770Z,6.91
2018-01-07T08:29:20.760Z,6.89
2018-01-07T08:30:20.747Z,6.89
2018-01-07T08:31:20.740Z,6.93
2018-01-07T08:32:20.739Z,6.99
2018-01-07T08:33:20.723Z,6.85
2018-01-07T08:34:20.715Z,7.01
2018-01-07T08:35:20.699Z,7.01
2018-01-07T08:36:20.695Z,7.00
2018-01-07T08:37:20.687Z,7.01
2018-01-07T08:38:20.677Z,6.97
2018-01-07T08:39:20.680Z,7.00
2018-01-07T08:40:20.660Z,7.11
2018-01-07T08:41:20.653Z,7.10
2018-01-07T08:42:20.643Z,7.18
2018-01-07T08:43:20.645Z,7.13
2018-01-07T08:44:20.630Z,7.10
2018-01-07T08:45:20.621Z,7.10
2018-01-07T08:46:20.615Z,7.11
2018-01-07T08:47:20.605Z,7.16
2018-01-07T08:48:20.596Z,7.19
2018-01-07T08:49:20.590Z,7.24
2018-01-07T08:50:20.586Z,7.26
2018-01-07T08:51:20.566Z,7.36
2018-01-07T08:52:20.558Z,7.29
2018-01-07T08:53:20.552Z,7.31
2018-01-07T08:54:20.542Z,7.44
2018-01-07T08:55:20.537Z,7.34
2018-01-07T08:56:20.525Z,7.22
2018-01-07T08:57:20.519Z,7.25
2018-01-07T08:58:20.510Z,7.16
2018-01-07T08:59:20.504Z,7.16
2018-01-07T09:00:20.500Z,7.24
2018-01-07T09:01:20.650Z,7.19
2018-01-07T09:02:20.480Z,7.25
2018-01-07T09:03:20.472Z,7.24
2018-01-07T09:04:20.464Z,7.22
2018-01-07T09:05:20.456Z,7.26
2018-01-07T09:06:20.444Z,7.15
2018-01-07T09:07:20.435Z,7.24
2018-01-07T09:08:20.469Z,7.19
2018-01-07T09:09:20.418Z,7.21
2018-01-07T09:10:20.415Z,7.33
2018-01-07T09:11:20.399Z,7.29
2018-01-07T09:12:20.393Z,7.31
2018-01-07T09:13:20.387Z,7.33
2018-01-07T09:14:20.380Z,7.40
2018-01-07T09:15:20.372Z,7.46
2018-01-07T09:16:20.363Z,7.42
2018-01-07T09:17:20.356Z,7.43
2018-01-07T09:18:20.345Z,7.43
2018-01-07T09:19:20.336Z,7.44
2018-01-07T09:20:20.333Z,7.36
2018-01-07T09:21:20.322Z,7.33
2018-01-07T09:22:20.310Z,7.43
2018-01-07T09:23:20.302Z,7.39
2018-01-07T09:24:20.294Z,7.42
2018-01-07T09:25:20.291Z,7.43
2018-01-07T09:26:20.280Z,7.52
2018-01-07T09:27:20.274Z,7.46
2018-01-07T09:28:20.268Z,7.60
2018-01-07T09:29:20.255Z,7.57
2018-01-07T09:30:20.260Z,7.50
2018-01-07T09:31:20.239Z,7.47
2018-01-07T09:32:20.227Z,7.60
2018-01-07T09:33:20.222Z,7.58
2018-01-07T09:34:20.218Z,7.66
2018-01-07T09:35:20.204Z,7.66
2018-01-07T09:36:20.225Z,7.77
2018-01-07T09:37:20.190Z,7.76
2018-01-07T09:38:20.183Z,7.69
2018-01-07T09:39:20.174Z,7.68
2018-01-07T09:40:20.213Z,7.55
2018-01-07T09:41:20.160Z,7.57
2018-01-07T09:42:20.156Z,7.64
2018-01-07T09:43:20.139Z,7.73
2018-01-07T09:44:20.137Z,7.73
2018-01-07T09:45:20.131Z,7.69
2018-01-07T09:46:20.122Z,7.77
2018-01-07T09:47:20.113Z,7.69
2018-01-07T09:48:20.102Z,7.66
2018-01-07T09:49:20.097Z,7.73
2018-01-07T09:50:20.093Z,7.77
2018-01-07T09:51:20.080Z,7.76
2018-01-07T09:52:20.076Z,7.74
2018-01-07T09:53:20.064Z,7.78
2018-01-07T09:54:20.055Z,7.84
2018-01-07T09:55:20.050Z,7.78
2018-01-07T09:56:20.044Z,7.87
2018-01-07T09:57:20.040Z,7.92
2018-01-07T09:58:20.027Z,7.81
2018-01-07T09:59:20.020Z,7.74
2018-01-07T10:00:20.016Z,7.76
2018-01-07T10:01:20.823Z,7.77
2018-01-07T10:02:19.993Z,7.71
2018-01-07T10:03:19.986Z,7.74
2018-01-07T10:04:19.979Z,7.61
2018-01-07T10:05:20.549Z,7.61
2018-01-07T10:06:19.966Z,7.66
2018-01-07T10:07:19.963Z,7.76
2018-01-07T10:08:21.466Z,7.83
2018-01-07T10:09:19.939Z,7.86
2018-01-07T10:10:19.937Z,7.81
2018-01-07T10:11:19.927Z,7.94
2018-01-07T10:12:20.403Z,7.95
2018-01-07T10:13:19.912Z,7.91
2018-01-07T10:14:19.899Z,7.95
2018-01-07T10:15:19.905Z,7.87
2018-01-07T10:16:19.887Z,7.94
2018-01-07T10:17:19.897Z,7.74
2018-01-07T10:18:19.870Z,7.83
2018-01-07T10:19:19.861Z,7.83
2018-01-07T10:20:19.855Z,7.87
2018-01-07T10:21:19.846Z,7.92
2018-01-07T10:22:19.838Z,7.99
2018-01-07T10:23:19.842Z,8.04
2018-01-07T10:24:19.821Z,8.04
2018-01-07T10:25:19.814Z,8.06
2018-01-07T10:26:19.813Z,8.05
2018-01-07T10:27:19.810Z,7.92
2018-01-07T10:28:19.809Z,7.69
2018-01-07T10:29:19.792Z,7.71
2018-01-07T10:30:19.781Z,7.77
2018-01-07T10:31:19.801Z,7.76
2018-01-07T10:32:19.771Z,7.87
2018-01-07T10:33:19.757Z,7.74
2018-01-07T10:34:19.749Z,7.69
2018-01-07T10:35:19.741Z,7.69
2018-01-07T10:36:19.734Z,7.77
2018-01-07T10:37:23.544Z,7.77
2018-01-07T10:38:19.721Z,7.77
2018-01-07T10:39:19.711Z,7.74
2018-01-07T10:40:19.705Z,7.77
2018-01-07T10:41:19.694Z,7.83
2018-01-07T10:42:19.689Z,7.78
2018-01-07T10:43:19.676Z,7.80
2018-01-07T10:44:19.669Z,7.94
2018-01-07T10:45:19.666Z,7.88
2018-01-07T10:46:19.654Z,7.91
2018-01-07T10:47:19.644Z,7.87
2018-01-07T10:48:19.653Z,7.99
2018-01-07T10:49:19.629Z,7.83
2018-01-07T10:50:19.634Z,7.76
2018-01-07T10:51:19.617Z,7.78
2018-01-07T10:52:19.610Z,7.86
2018-01-07T10:53:19.602Z,7.83
2018-01-07T10:54:19.594Z,7.87
2018-01-07T10:55:19.589Z,7.68
2018-01-07T10:56:19.583Z,7.76
2018-01-07T10:57:19.575Z,7.78
2018-01-07T10:58:19.565Z,7.87
2018-01-07T10:59:19.553Z,7.88
2018-01-07T11:00:19.550Z,7.83
2018-01-07T11:01:19.528Z,7.84
2018-01-07T11:02:19.530Z,7.91
2018-01-07T11:03:19.522Z,7.83
2018-01-07T11:04:21.707Z,7.87
2018-01-07T11:05:19.505Z,7.91
2018-01-07T11:06:19.497Z,7.86
2018-01-07T11:07:19.500Z,7.84
2018-01-07T11:08:19.485Z,7.78
2018-01-07T11:09:19.481Z,7.81
2018-01-07T11:10:19.470Z,7.74
2018-01-07T11:11:23.572Z,7.77
2018-01-07T11:12:19.456Z,7.83
2018-01-07T11:13:19.449Z,7.78
2018-01-07T11:14:19.436Z,7.84
2018-01-07T11:15:19.429Z,7.81
2018-01-07T11:16:19.418Z,7.87
2018-01-07T11:17:19.413Z,7.78
2018-01-07T11:18:19.404Z,7.84
2018-01-07T11:19:19.396Z,7.94
2018-01-07T11:20:19.388Z,7.83
2018-01-07T11:21:19.381Z,7.95
2018-01-07T11:22:19.375Z,7.86
2018-01-07T11:23:19.367Z,7.86
2018-01-07T11:24:19.369Z,7.95
2018-01-07T11:25:19.353Z,7.96
2018-01-07T11:26:19.368Z,7.88
2018-01-07T11:27:19.336Z,7.87
2018-01-07T11:28:19.330Z,7.86
2018-01-07T11:29:19.322Z,7.80
2018-01-07T11:30:19.315Z,7.86
2018-01-07T11:31:19.484Z,7.92
2018-01-07T11:32:19.297Z,7.86
2018-01-07T11:33:19.289Z,7.87
2018-01-07T11:34:19.285Z,7.95
2018-01-07T11:35:19.271Z,7.88
2018-01-07T11:36:19.268Z,7.99
2018-01-07T11:37:19.257Z,7.96
2018-01-07T11:38:19.254Z,7.99
2018-01-07T11:39:19.245Z,7.94
2018-01-07T11:40:19.246Z,8.06
2018-01-07T11:41:19.226Z,8.01
2018-01-07T11:42:19.219Z,8.02
2018-01-07T11:43:19.211Z,8.02
2018-01-07T11:44:19.202Z,7.94
2018-01-07T11:45:19.198Z,7.86
2018-01-07T11:46:19.200Z,7.86
2018-01-07T11:47:19.184Z,7.91
2018-01-07T11:48:19.176Z,7.98
2018-01-07T11:49:19.168Z,7.88
2018-01-07T11:50:19.159Z,7.96
2018-01-07T11:51:19.154Z,7.98
2018-01-07T11:52:19.143Z,7.99
2018-01-07T11:53:19.138Z,7.83
2018-01-07T11:54:19.129Z,7.77
2018-01-07T11:55:19.148Z,7.80
2018-01-07T11:56:19.110Z,7.83
2018-01-07T11:57:19.106Z,7.84
2018-01-07T11:58:19.096Z,7.91
2018-01-07T11:59:19.085Z,7.81
2018-01-07T12:00:19.078Z,7.91
2018-01-07T12:01:19.072Z,7.84
2018-01-07T12:02:19.066Z,7.96
2018-01-07T12:03:19.060Z,7.92
2018-01-07T12:04:19.054Z,7.95
2018-01-07T12:05:19.046Z,7.92
2018-01-07T12:06:19.054Z,8.01
2018-01-07T12:07:19.030Z,7.96
2018-01-07T12:08:19.023Z,7.92
2018-01-07T12:09:19.012Z,7.88
2018-01-07T12:10:19.006Z,7.98
2018-01-07T12:11:18.993Z,7.92
2018-01-07T12:12:18.982Z,7.96
2018-01-07T12:13:19.650Z,7.95
2018-01-07T12:13:30.976Z,7.96
2018-01-07T12:15:18.965Z,7.96
2018-01-07T12:16:18.954Z,8.06
2018-01-07T12:17:18.948Z,7.91
2018-01-07T12:18:18.938Z,7.99
2018-01-07T12:19:18.925Z,8.04
2018-01-07T12:20:18.926Z,8.10
2018-01-07T12:21:18.920Z,8.05
2018-01-07T12:22:18.910Z,8.04
2018-01-07T12:23:18.906Z,8.02
2018-01-07T12:24:18.897Z,7.96
2018-01-07T12:25:18.890Z,8.01
2018-01-07T12:26:18.882Z,8.01
2018-01-07T12:27:18.870Z,7.88
2018-01-07T12:28:18.875Z,7.87
2018-01-07T12:29:18.853Z,7.76
2018-01-07T12:30:18.844Z,7.84
2018-01-07T12:31:18.836Z,7.88
2018-01-07T12:32:18.825Z,7.92
2018-01-07T12:33:18.821Z,8.01
2018-01-07T12:34:18.816Z,8.01
2018-01-07T12:35:18.813Z,8.13
2018-01-07T12:36:18.802Z,8.13
2018-01-07T12:37:18.788Z,8.14
2018-01-07T12:38:18.781Z,8.19
2018-01-07T12:39:18.778Z,8.20
2018-01-07T12:40:18.768Z,8.23
2018-01-07T12:41:18.753Z,8.20
2018-01-07T12:42:18.754Z,8.14
2018-01-07T12:43:18.747Z,8.28
2018-01-07T12:44:18.746Z,8.21
2018-01-07T12:45:18.733Z,8.17
2018-01-07T12:46:18.727Z,8.26
2018-01-07T12:47:18.715Z,8.26
2018-01-07T12:48:18.714Z,8.32
2018-01-07T12:49:18.697Z,8.47
2018-01-07T12:50:18.706Z,8.38
2018-01-07T12:51:18.702Z,8.41
2018-01-07T12:52:18.682Z,8.42
2018-01-07T12:53:18.669Z,8.42
2018-01-07T12:54:18.659Z,8.34
2018-01-07T12:55:18.654Z,8.37
2018-01-07T12:56:18.639Z,8.29
2018-01-07T12:57:18.640Z,8.39
2018-01-07T12:58:18.626Z,8.34
2018-01-07T12:59:18.678Z,8.26
2018-01-07T13:00:18.617Z,8.29
2018-01-07T13:01:18.614Z,8.29
2018-01-07T13:02:18.603Z,8.20
2018-01-07T13:03:18.595Z,8.24
2018-01-07T13:04:18.589Z,8.37
2018-01-07T13:05:18.580Z,8.44
2018-01-07T13:06:18.572Z,8.37
2018-01-07T13:07:18.561Z,8.35
2018-01-07T13:08:18.553Z,8.49
2018-01-07T13:09:18.546Z,8.34
2018-01-07T13:10:18.544Z,8.38
2018-01-07T13:11:18.531Z,8.37
2018-01-07T13:12:18.525Z,8.34
2018-01-07T13:13:18.515Z,8.32
2018-01-07T13:14:18.505Z,8.28
2018-01-07T13:15:18.507Z,8.26
2018-01-07T13:16:18.496Z,8.34
2018-01-07T13:17:18.491Z,8.28
2018-01-07T13:18:18.493Z,8.23